Time;durP1;ratioP1;P1;durP2;ratioP2;P2;SDS_P1;SDS_P2;PMS_P1;PMS_P2;Temp;Humidity;BMP_temperature;BMP_pressure;BME280_temperature;BME280_humidity;BME280_pressure;Samples;Min_cycle;Max_cycle;Signal;HPM_P1;HPM_P2
2021/01/15 00:02:18;;;;;;;;;;;4.00;99.90;;;;;;5124427;28;20002;-57
2021/01/15 00:04:44;;;;;;;;;;;4.00;99.90;;;;;;5123962;28;19947;-57
2021/01/15 00:07:10;;;;;;;;;;;4.00;99.90;;;;;;5124243;28;19918;-57
2021/01/15 00:09:35;;;;;;;;;;;4.00;99.90;;;;;;5123407;28;19912;-57
2021/01/15 00:12:01;;;;;;;;;;;4.00;99.90;;;;;;5124173;28;19908;-56
2021/01/15 00:14:26;;;;;;;;;;;4.00;99.90;;;;;;5123731;28;20264;-56
2021/01/15 00:16:55;;;;;;;;;;;4.10;99.90;;;;;;5124029;28;19904;-57
2021/01/15 00:19:21;;;;;;;;;;;4.10;99.90;;;;;;5105234;28;19910;-57
2021/01/15 00:21:50;;;;;;;;;;;4.00;99.90;;;;;;5124129;28;19904;-57
2021/01/15 00:24:16;;;;;;;;;;;4.00;99.90;;;;;;5123547;28;20294;-57
2021/01/15 00:26:43;;;;;;;;;;;4.00;99.90;;;;;;5120085;28;20207;-57
2021/01/15 00:29:15;;;;;;;;;;;4.00;99.90;;;;;;5120299;28;19908;-57
2021/01/15 00:31:41;;;;;;;;;;;4.00;99.90;;;;;;5120697;28;19911;-57
2021/01/15 00:34:08;;;;;;;;;;;4.00;99.90;;;;;;5120582;28;19907;-56
2021/01/15 00:36:33;;;;;;;;;;;4.00;99.90;;;;;;5102415;28;19908;-57
2021/01/15 00:38:59;;;;;;;;;;;4.00;99.90;;;;;;5120253;28;19915;-57
2021/01/15 00:41:24;;;;;;;;;;;4.00;99.90;;;;;;5120308;28;19912;-58
2021/01/15 00:43:50;;;;;;;;;;;4.00;99.90;;;;;;5119954;28;19912;-57
2021/01/15 00:46:31;;;;;;;;;;;3.90;99.90;;;;;;5120362;28;19964;-57
2021/01/15 00:49:03;;;;;;;;;;;3.90;99.90;;;;;;5120141;28;20218;-57
2021/01/15 00:51:29;;;;;;;;;;;3.90;99.90;;;;;;5120241;28;19910;-57
2021/01/15 00:53:54;;;;;;;;;;;3.90;99.90;;;;;;5119743;28;19947;-57
2021/01/15 00:56:20;;;;;;;;;;;3.80;99.90;;;;;;5120413;28;19961;-57
2021/01/15 00:58:46;;;;;;;;;;;3.90;99.90;;;;;;5120017;28;19903;-57
2021/01/15 01:01:12;;;;;;;;;;;3.80;99.90;;;;;;5120173;28;19908;-57
2021/01/15 01:03:38;;;;;;;;;;;3.90;99.90;;;;;;5119678;28;20294;-57
2021/01/15 01:06:08;;;;;;;;;;;3.80;99.90;;;;;;5119908;28;19912;-56
2021/01/15 01:08:33;;;;;;;;;;;3.80;99.90;;;;;;5119887;28;19910;-57
2021/01/15 01:10:59;;;;;;;;;;;3.80;99.90;;;;;;5119363;28;19912;-57
2021/01/15 01:13:24;;;;;;;;;;;3.80;99.90;;;;;;5119430;28;20356;-56
2021/01/15 01:15:50;;;;;;;;;;;3.80;99.90;;;;;;5119235;28;19908;-56
2021/01/15 01:18:15;;;;;;;;;;;3.80;99.90;;;;;;5101043;28;19916;-56
2021/01/15 01:20:41;;;;;;;;;;;3.80;99.90;;;;;;5119172;28;19908;-56
2021/01/15 01:23:06;;;;;;;;;;;3.80;99.90;;;;;;5119100;28;19953;-56
2021/01/15 01:25:32;;;;;;;;;;;3.80;99.90;;;;;;5106778;28;19935;-56
2021/01/15 01:27:57;;;;;;;;;;;3.80;99.90;;;;;;5080890;28;19950;-57
2021/01/15 01:30:23;;;;;;;;;;;3.70;99.90;;;;;;5098162;28;19912;-57
2021/01/15 01:32:48;;;;;;;;;;;3.80;99.90;;;;;;5080834;28;19915;-57
2021/01/15 01:35:14;;;;;;;;;;;3.80;99.90;;;;;;5098606;28;19904;-57
2021/01/15 01:37:39;;;;;;;;;;;3.80;99.90;;;;;;5098807;28;19915;-57
2021/01/15 01:40:05;;;;;;;;;;;3.80;99.90;;;;;;5098830;28;19912;-57
2021/01/15 01:42:30;;;;;;;;;;;3.80;99.90;;;;;;5098985;28;19960;-57
2021/01/15 01:44:56;;;;;;;;;;;3.70;99.90;;;;;;5098383;28;19927;-58
2021/01/15 01:47:22;;;;;;;;;;;3.80;99.90;;;;;;5098885;28;20227;-58
2021/01/15 01:49:47;;;;;;;;;;;3.80;99.90;;;;;;5098157;28;20298;-58
2021/01/15 01:52:13;;;;;;;;;;;3.80;99.90;;;;;;5080449;28;19953;-58
2021/01/15 01:54:39;;;;;;;;;;;3.80;99.90;;;;;;5080104;28;20291;-58
2021/01/15 01:57:06;;;;;;;;;;;3.80;99.90;;;;;;5098754;28;20083;-57
2021/01/15 01:59:32;;;;;;;;;;;3.80;99.90;;;;;;5097912;28;20333;-58
2021/01/15 02:01:57;;;;;;;;;;;3.70;99.90;;;;;;5098339;28;19945;-57
2021/01/15 02:04:23;;;;;;;;;;;3.70;99.90;;;;;;5098242;28;20222;-58
2021/01/15 02:06:49;;;;;;;;;;;3.70;99.90;;;;;;5098653;28;19948;-58
2021/01/15 02:09:18;;;;;;;;;;;3.80;99.90;;;;;;5100989;28;19904;-58
2021/01/15 02:12:02;;;;;;;;;;;3.80;99.90;;;;;;5118395;28;19915;-58
2021/01/15 02:14:35;;;;;;;;;;;3.70;99.90;;;;;;5118030;28;19904;-58
2021/01/15 02:17:01;;;;;;;;;;;3.70;99.90;;;;;;5118751;28;19914;-57
2021/01/15 02:19:36;;;;;;;;;;;3.70;99.90;;;;;;5118423;28;19908;-57
2021/01/15 02:22:20;;;;;;;;;;;3.70;99.90;;;;;;5118305;28;19995;-57
2021/01/15 02:24:54;;;;;;;;;;;3.80;99.90;;;;;;5112563;28;20004;-57
2021/01/15 02:27:25;;;;;;;;;;;3.70;99.90;;;;;;5098035;28;19939;-57
2021/01/15 02:29:57;;;;;;;;;;;3.70;99.90;;;;;;5097127;28;19908;-57
2021/01/15 02:32:22;;;;;;;;;;;3.80;99.90;;;;;;5106688;28;19947;-57
2021/01/15 02:35:10;;;;;;;;;;;3.70;99.90;;;;;;5099502;28;20252;-57
2021/01/15 02:38:05;;;;;;;;;;;3.70;99.90;;;;;;5117972;28;19914;-57
2021/01/15 02:40:49;;;;;;;;;;;3.80;99.90;;;;;;5031254;27;19912;-57
2021/01/15 02:43:16;;;;;;;;;;;3.80;99.90;;;;;;5117941;28;19900;-57
2021/01/15 02:45:42;;;;;;;;;;;3.80;99.90;;;;;;5117707;28;19920;-58
2021/01/15 02:48:10;;;;;;;;;;;3.70;99.90;;;;;;5117630;28;19912;-57
2021/01/15 02:50:36;;;;;;;;;;;3.70;99.90;;;;;;5117782;28;19911;-58
2021/01/15 02:53:02;;;;;;;;;;;3.70;99.90;;;;;;5118256;28;19935;-57
2021/01/15 02:55:27;;;;;;;;;;;3.70;99.90;;;;;;5117253;28;20298;-57
2021/01/15 02:57:53;;;;;;;;;;;3.70;99.90;;;;;;5117778;28;19904;-57
2021/01/15 03:00:20;;;;;;;;;;;3.70;99.90;;;;;;5117132;28;20234;-57
2021/01/15 03:03:15;;;;;;;;;;;3.70;99.90;;;;;;5117682;28;20278;-57
2021/01/15 03:06:16;;;;;;;;;;;3.60;99.90;;;;;;5094880;28;19911;-57
2021/01/15 03:08:43;;;;;;;;;;;3.60;99.90;;;;;;5015316;28;19906;-57
2021/01/15 03:11:09;;;;;;;;;;;3.60;99.90;;;;;;5097062;28;19995;-57
2021/01/15 03:13:36;;;;;;;;;;;3.50;99.90;;;;;;5117513;28;19946;-57
2021/01/15 03:16:02;;;;;;;;;;;3.40;99.90;;;;;;5117281;28;19904;-57
2021/01/15 03:18:29;;;;;;;;;;;3.30;99.90;;;;;;5117325;28;19904;-57
2021/01/15 03:20:54;;;;;;;;;;;3.30;99.90;;;;;;5117146;28;19910;-57
2021/01/15 03:23:20;;;;;;;;;;;3.20;99.90;;;;;;5117541;28;20206;-57
2021/01/15 03:25:46;;;;;;;;;;;3.10;99.90;;;;;;5117188;28;19990;-57
2021/01/15 03:28:11;;;;;;;;;;;3.00;99.90;;;;;;5117139;28;19908;-57
2021/01/15 03:30:37;;;;;;;;;;;3.00;99.90;;;;;;5116346;28;19916;-57
2021/01/15 03:33:03;;;;;;;;;;;2.90;99.90;;;;;;5117516;28;19907;-57
2021/01/15 03:35:30;;;;;;;;;;;2.80;99.90;;;;;;5116871;28;19911;-57
2021/01/15 03:37:56;;;;;;;;;;;2.80;99.90;;;;;;5117169;28;20271;-57
2021/01/15 03:40:23;;;;;;;;;;;2.80;99.90;;;;;;5117070;28;19914;-57
2021/01/15 03:42:48;;;;;;;;;;;2.70;99.90;;;;;;5117304;28;19931;-57
2021/01/15 03:45:14;;;;;;;;;;;2.70;99.90;;;;;;5116877;28;20436;-57
2021/01/15 03:47:39;;;;;;;;;;;2.60;99.90;;;;;;5117412;28;19911;-57
2021/01/15 03:50:06;;;;;;;;;;;2.60;99.90;;;;;;5116837;28;19915;-57
2021/01/15 03:52:31;;;;;;;;;;;2.50;99.90;;;;;;5117298;28;19914;-58
2021/01/15 03:54:57;;;;;;;;;;;2.50;99.90;;;;;;5116934;28;19907;-57
2021/01/15 03:57:22;;;;;;;;;;;2.50;99.90;;;;;;5116953;28;19952;-57
2021/01/15 03:59:48;;;;;;;;;;;2.50;99.90;;;;;;5117011;28;19964;-57
2021/01/15 04:02:14;;;;;;;;;;;2.40;99.90;;;;;;5120458;28;19968;-57
2021/01/15 04:04:39;;;;;;;;;;;2.40;99.90;;;;;;5120725;28;19988;-57
2021/01/15 04:07:05;;;;;;;;;;;2.40;99.90;;;;;;5120992;28;19954;-58
2021/01/15 04:09:30;;;;;;;;;;;2.40;99.90;;;;;;5120615;28;19918;-58
2021/01/15 04:11:56;;;;;;;;;;;2.30;99.90;;;;;;5121086;28;20183;-57
2021/01/15 04:14:21;;;;;;;;;;;2.20;99.90;;;;;;5120678;28;19976;-57
2021/01/15 04:16:53;;;;;;;;;;;2.20;99.90;;;;;;5121091;28;19922;-57
2021/01/15 04:19:18;;;;;;;;;;;2.10;99.90;;;;;;5120389;28;20302;-57
2021/01/15 04:21:44;;;;;;;;;;;2.10;99.90;;;;;;5120417;28;19960;-57
2021/01/15 04:24:09;;;;;;;;;;;2.10;99.90;;;;;;5119396;28;19915;-57
2021/01/15 04:26:35;;;;;;;;;;;2.10;99.90;;;;;;5100268;28;19912;-57
2021/01/15 04:29:00;;;;;;;;;;;2.10;99.90;;;;;;5099978;28;19908;-57
2021/01/15 04:31:26;;;;;;;;;;;2.00;99.90;;;;;;5100014;28;20295;-57
2021/01/15 04:33:52;;;;;;;;;;;2.00;99.90;;;;;;5099776;28;19999;-57
2021/01/15 04:36:17;;;;;;;;;;;1.90;99.90;;;;;;5099683;28;20289;-57
2021/01/15 04:38:43;;;;;;;;;;;1.90;99.90;;;;;;5099667;28;19915;-57
2021/01/15 04:41:09;;;;;;;;;;;1.90;99.90;;;;;;5099865;28;19947;-57
2021/01/15 04:43:35;;;;;;;;;;;1.90;99.90;;;;;;5099299;28;19908;-57
2021/01/15 04:46:04;;;;;;;;;;;1.90;99.90;;;;;;5060744;28;19919;-58
2021/01/15 04:48:33;;;;;;;;;;;1.90;99.90;;;;;;5059078;28;19955;-58
2021/01/15 04:50:59;;;;;;;;;;;1.80;99.90;;;;;;5059420;28;19912;-58
2021/01/15 04:53:27;;;;;;;;;;;1.80;99.90;;;;;;5059124;28;19920;-57
2021/01/15 04:55:56;;;;;;;;;;;1.80;99.90;;;;;;5059310;28;20049;-57
2021/01/15 04:58:22;;;;;;;;;;;1.80;99.90;;;;;;5059059;28;19905;-56
2021/01/15 05:00:53;;;;;;;;;;;1.80;99.90;;;;;;5057881;28;20325;-56
2021/01/15 05:03:22;;;;;;;;;;;1.70;99.90;;;;;;5058754;28;19970;-56
2021/01/15 05:05:49;;;;;;;;;;;1.60;99.90;;;;;;5058808;28;19935;-56
2021/01/15 05:08:15;;;;;;;;;;;1.60;99.90;;;;;;5059068;28;20318;-57
2021/01/15 05:10:42;;;;;;;;;;;1.60;99.90;;;;;;5059384;28;19909;-57
2021/01/15 05:13:09;;;;;;;;;;;1.50;99.90;;;;;;5058539;28;19911;-57
2021/01/15 05:15:36;;;;;;;;;;;1.50;99.90;;;;;;5059319;28;19959;-57
2021/01/15 05:18:08;;;;;;;;;;;1.50;99.90;;;;;;5058448;28;19904;-57
2021/01/15 05:20:33;;;;;;;;;;;1.50;99.90;;;;;;5079138;28;19908;-57
2021/01/15 05:23:00;;;;;;;;;;;1.40;99.90;;;;;;5078903;28;20353;-56
2021/01/15 05:25:26;;;;;;;;;;;1.40;99.90;;;;;;5067630;28;20303;-56
2021/01/15 05:27:51;;;;;;;;;;;1.40;99.90;;;;;;5059209;28;19944;-57
2021/01/15 05:30:18;;;;;;;;;;;1.40;99.90;;;;;;5058383;28;19908;-57
2021/01/15 05:32:47;;;;;;;;;;;1.40;99.90;;;;;;5040596;28;19969;-56
2021/01/15 05:35:13;;;;;;;;;;;1.30;99.90;;;;;;5058273;28;19911;-57
2021/01/15 05:37:38;;;;;;;;;;;1.40;99.90;;;;;;5058299;28;19905;-56
2021/01/15 05:40:05;;;;;;;;;;;1.40;99.90;;;;;;5058280;28;19913;-56
2021/01/15 05:42:44;;;;;;;;;;;1.30;99.90;;;;;;5058416;28;19905;-55
2021/01/15 05:45:13;;;;;;;;;;;1.20;99.90;;;;;;5080582;28;19943;-56
2021/01/15 05:47:45;;;;;;;;;;;1.20;99.90;;;;;;5098968;28;19908;-56
2021/01/15 05:50:14;;;;;;;;;;;1.20;99.90;;;;;;5080087;28;19957;-56
2021/01/15 05:52:55;;;;;;;;;;;1.20;99.90;;;;;;5098931;28;19999;-56
2021/01/15 05:55:22;;;;;;;;;;;1.20;99.90;;;;;;5098581;28;19950;-56
2021/01/15 05:57:48;;;;;;;;;;;1.20;99.90;;;;;;5098389;28;20217;-56
2021/01/15 06:00:25;;;;;;;;;;;1.10;99.90;;;;;;5098396;28;19986;-56
2021/01/15 06:02:54;;;;;;;;;;;1.10;99.90;;;;;;5098255;28;19908;-56
2021/01/15 06:05:21;;;;;;;;;;;1.00;99.90;;;;;;5098339;28;19908;-56
2021/01/15 06:07:53;;;;;;;;;;;1.00;99.90;;;;;;5098291;28;19904;-56
2021/01/15 06:10:18;;;;;;;;;;;1.00;99.90;;;;;;5105729;28;19953;-56
2021/01/15 06:12:44;;;;;;;;;;;1.00;99.90;;;;;;5118886;28;19912;-57
2021/01/15 06:15:10;;;;;;;;;;;1.00;99.90;;;;;;5118494;28;19965;-57
2021/01/15 06:17:39;;;;;;;;;;;1.00;99.90;;;;;;5118621;28;19942;-57
2021/01/15 06:20:05;;;;;;;;;;;1.00;99.90;;;;;;5118346;28;19994;-59
2021/01/15 06:22:44;;;;;;;;;;;1.00;99.90;;;;;;5118272;28;19903;-57
2021/01/15 06:25:09;;;;;;;;;;;0.90;99.90;;;;;;5117666;28;20305;-57
2021/01/15 06:27:39;;;;;;;;;;;0.90;99.90;;;;;;5118582;28;19938;-57
2021/01/15 06:30:06;;;;;;;;;;;0.90;99.90;;;;;;5118138;28;19953;-57
2021/01/15 06:32:31;;;;;;;;;;;0.90;99.90;;;;;;5118197;28;19908;-57
2021/01/15 06:34:57;;;;;;;;;;;0.90;99.90;;;;;;5118036;28;19908;-57
2021/01/15 06:37:22;;;;;;;;;;;1.00;99.90;;;;;;5118429;28;19939;-58
2021/01/15 06:40:05;;;;;;;;;;;1.00;99.90;;;;;;5117934;28;19904;-56
2021/01/15 06:42:31;;;;;;;;;;;1.00;99.90;;;;;;5117929;28;19904;-57
2021/01/15 06:44:59;;;;;;;;;;;1.00;99.90;;;;;;5117774;28;19999;-56
2021/01/15 06:47:26;;;;;;;;;;;1.10;99.90;;;;;;5117957;28;19943;-57
2021/01/15 06:49:54;;;;;;;;;;;1.10;99.90;;;;;;5117404;28;19908;-56
2021/01/15 06:52:24;;;;;;;;;;;1.10;99.90;;;;;;5117913;28;20295;-56
2021/01/15 06:54:53;;;;;;;;;;;1.10;99.90;;;;;;5117462;28;19911;-56
2021/01/15 06:57:19;;;;;;;;;;;1.10;99.90;;;;;;5117887;28;19907;-57
2021/01/15 06:59:51;;;;;;;;;;;1.10;99.90;;;;;;5117531;28;20318;-57
2021/01/15 07:02:17;;;;;;;;;;;1.10;99.90;;;;;;5117341;28;19903;-57
2021/01/15 07:04:48;;;;;;;;;;;1.10;99.90;;;;;;5117015;28;20264;-56
2021/01/15 07:07:15;;;;;;;;;;;1.20;99.90;;;;;;5117674;28;19998;-56
2021/01/15 07:09:41;;;;;;;;;;;1.20;99.90;;;;;;5117270;28;19912;-56
2021/01/15 07:12:13;;;;;;;;;;;1.20;99.90;;;;;;5117125;28;20229;-56
2021/01/15 07:14:43;;;;;;;;;;;1.20;99.90;;;;;;5117622;28;19903;-57
2021/01/15 07:17:13;;;;;;;;;;;1.20;99.90;;;;;;5117143;28;19907;-56
2021/01/15 07:19:41;;;;;;;;;;;1.10;99.90;;;;;;5117585;28;20290;-56
2021/01/15 07:22:08;;;;;;;;;;;1.10;99.90;;;;;;5116410;28;19926;-56
2021/01/15 07:24:34;;;;;;;;;;;1.10;99.90;;;;;;5111081;28;19957;-56
2021/01/15 07:27:00;;;;;;;;;;;1.10;99.90;;;;;;5096665;28;20002;-56
2021/01/15 07:29:27;;;;;;;;;;;1.20;99.90;;;;;;5096392;28;19977;-56
2021/01/15 07:31:55;;;;;;;;;;;1.10;99.90;;;;;;5096822;28;19904;-56
2021/01/15 07:34:21;;;;;;;;;;;1.20;99.90;;;;;;5102496;28;19903;-56
2021/01/15 07:36:47;;;;;;;;;;;1.30;99.90;;;;;;5121269;28;20325;-56
2021/01/15 07:39:13;;;;;;;;;;;1.30;99.90;;;;;;5121242;28;19907;-56
2021/01/15 07:41:39;;;;;;;;;;;1.20;99.90;;;;;;5121232;28;19935;-57
2021/01/15 07:44:23;;;;;;;;;;;1.30;99.90;;;;;;5120460;28;19918;-57
2021/01/15 07:46:52;;;;;;;;;;;1.20;99.90;;;;;;5121016;28;20248;-57
2021/01/15 07:49:18;;;;;;;;;;;1.20;99.90;;;;;;5121044;28;20257;-57
2021/01/15 07:52:04;;;;;;;;;;;1.20;99.90;;;;;;5121258;28;19903;-57
2021/01/15 07:54:45;;;;;;;;;;;1.20;99.90;;;;;;5120693;28;20206;-57
2021/01/15 07:57:11;;;;;;;;;;;1.30;99.90;;;;;;5121133;28;19904;-58
2021/01/15 07:59:37;;;;;;;;;;;1.20;99.90;;;;;;5120874;28;19917;-57
2021/01/15 08:02:02;;;;;;;;;;;1.30;99.90;;;;;;5120431;28;20340;-57
2021/01/15 08:04:28;;;;;;;;;;;1.30;99.90;;;;;;5120954;28;20006;-57
2021/01/15 08:06:56;;;;;;;;;;;1.20;99.90;;;;;;5120647;28;19908;-57
2021/01/15 08:09:22;;;;;;;;;;;1.30;99.90;;;;;;5120849;28;19907;-57
2021/01/15 08:11:57;;;;;;;;;;;1.20;99.90;;;;;;5120617;28;19907;-57
2021/01/15 08:14:23;;;;;;;;;;;1.20;99.90;;;;;;5121009;28;19964;-57
2021/01/15 08:16:49;;;;;;;;;;;1.30;99.90;;;;;;5120520;28;19960;-57
2021/01/15 08:19:16;;;;;;;;;;;1.30;99.90;;;;;;5120445;28;19908;-57
2021/01/15 08:21:42;;;;;;;;;;;1.30;99.90;;;;;;5120457;28;19911;-57
2021/01/15 08:24:08;;;;;;;;;;;1.30;99.90;;;;;;5120502;28;19910;-57
2021/01/15 08:26:38;;;;;;;;;;;1.30;99.90;;;;;;5120712;28;19907;-57
2021/01/15 08:29:04;;;;;;;;;;;1.20;99.90;;;;;;5120341;28;19903;-57
2021/01/15 08:31:29;;;;;;;;;;;1.30;99.90;;;;;;5120466;28;19981;-57
2021/01/15 08:34:14;;;;;;;;;;;1.20;99.90;;;;;;5120178;28;19927;-56
2021/01/15 08:36:41;;;;;;;;;;;1.20;99.90;;;;;;5120476;28;19977;-56
2021/01/15 08:39:08;;;;;;;;;;;1.20;99.90;;;;;;5119951;28;19973;-56
2021/01/15 08:41:34;;;;;;;;;;;1.20;99.90;;;;;;5120351;28;19933;-56
2021/01/15 08:44:00;;;;;;;;;;;1.30;99.90;;;;;;5119921;28;19912;-56
2021/01/15 08:46:25;;;;;;;;;;;1.20;99.90;;;;;;5118622;28;19930;-56
2021/01/15 08:48:51;;;;;;;;;;;1.30;99.90;;;;;;5120376;28;19946;-56
2021/01/15 08:51:20;;;;;;;;;;;1.20;99.90;;;;;;5118803;28;19954;-56
2021/01/15 08:54:04;;;;;;;;;;;1.30;99.90;;;;;;5119714;28;20006;-56
2021/01/15 08:56:46;;;;;;;;;;;1.40;99.90;;;;;;5119723;28;19957;-57
2021/01/15 08:59:13;;;;;;;;;;;1.50;99.90;;;;;;5119498;28;19909;-56
2021/01/15 09:01:39;;;;;;;;;;;1.60;99.90;;;;;;5119295;28;19911;-56
2021/01/15 09:04:09;;;;;;;;;;;1.50;99.90;;;;;;5119600;28;19908;-56
2021/01/15 09:06:35;;;;;;;;;;;1.60;99.90;;;;;;5119439;28;19949;-57
2021/01/15 09:09:03;;;;;;;;;;;1.80;99.90;;;;;;5118009;28;19904;-55
2021/01/15 09:11:30;;;;;;;;;;;1.60;99.90;;;;;;5119190;28;19907;-55
2021/01/15 09:13:56;;;;;;;;;;;1.40;99.90;;;;;;5119419;28;19908;-55
2021/01/15 09:16:23;;;;;;;;;;;1.30;99.90;;;;;;5119206;28;19910;-53
2021/01/15 09:18:52;;;;;;;;;;;1.40;99.90;;;;;;5119619;28;19904;-55
2021/01/15 09:21:18;;;;;;;;;;;1.50;99.90;;;;;;5118939;28;19908;-55
2021/01/15 09:23:43;;;;;;;;;;;1.60;99.90;;;;;;5100957;28;20006;-55
2021/01/15 09:26:09;;;;;;;;;;;1.70;99.90;;;;;;5101309;28;19949;-55
2021/01/15 09:28:34;;;;;;;;;;;1.80;99.90;;;;;;5098514;28;20303;-55
2021/01/15 09:31:00;;;;;;;;;;;1.70;99.90;;;;;;5098138;28;19919;-55
2021/01/15 09:33:26;;;;;;;;;;;1.60;99.90;;;;;;5098807;28;19912;-55
2021/01/15 09:35:52;;;;;;;;;;;1.70;99.90;;;;;;5107359;28;20336;-55
2021/01/15 09:38:17;;;;;;;;;;;1.60;99.90;;;;;;5119176;28;20318;-55
2021/01/15 09:40:43;;;;;;;;;;;1.70;99.90;;;;;;5108555;28;19908;-55
2021/01/15 09:43:08;;;;;;;;;;;1.60;99.90;;;;;;5115223;27;19918;-54
2021/01/15 09:45:34;;;;;;;;;;;1.60;99.90;;;;;;5106136;27;19927;-54
2021/01/15 09:48:00;;;;;;;;;;;1.70;99.90;;;;;;5139432;27;19947;-54
2021/01/15 09:50:26;;;;;;;;;;;1.70;99.90;;;;;;5127237;27;19977;-54
2021/01/15 09:52:51;;;;;;;;;;;1.60;99.90;;;;;;5101742;28;20234;-54
2021/01/15 09:55:17;;;;;;;;;;;1.50;99.90;;;;;;5097911;28;20002;-54
2021/01/15 09:57:46;;;;;;;;;;;1.40;99.90;;;;;;5097530;28;19924;-54
2021/01/15 10:00:12;;;;;;;;;;;1.50;99.90;;;;;;5098175;28;19908;-54
2021/01/15 10:02:37;;;;;;;;;;;1.60;99.90;;;;;;5097767;28;20290;-54
2021/01/15 10:05:03;;;;;;;;;;;1.80;99.90;;;;;;5098409;28;19908;-54
2021/01/15 10:07:29;;;;;;;;;;;1.80;99.90;;;;;;5097755;28;19927;-55
2021/01/15 10:09:54;;;;;;;;;;;1.70;99.90;;;;;;5102857;28;19912;-55
2021/01/15 10:12:20;;;;;;;;;;;1.70;99.90;;;;;;5118231;28;19907;-55
2021/01/15 10:14:45;;;;;;;;;;;1.70;99.90;;;;;;5118593;28;19923;-54
2021/01/15 10:17:11;;;;;;;;;;;1.70;99.90;;;;;;5118134;28;19908;-55
2021/01/15 10:19:36;;;;;;;;;;;1.70;99.90;;;;;;5118168;28;19908;-55
2021/01/15 10:22:02;;;;;;;;;;;1.70;99.90;;;;;;5117774;28;19956;-54
2021/01/15 10:24:27;;;;;;;;;;;1.60;99.90;;;;;;5114405;28;19908;-55
2021/01/15 10:26:53;;;;;;;;;;;1.60;99.90;;;;;;5097811;28;19908;-54
2021/01/15 10:29:18;;;;;;;;;;;1.70;99.90;;;;;;5097898;28;19908;-54
2021/01/15 10:31:45;;;;;;;;;;;1.70;99.90;;;;;;5101289;28;20282;-54
2021/01/15 10:34:11;;;;;;;;;;;1.80;99.90;;;;;;5117615;28;19910;-55
2021/01/15 10:36:39;;;;;;;;;;;1.90;99.90;;;;;;5118058;28;19998;-55
2021/01/15 10:39:04;;;;;;;;;;;2.10;99.90;;;;;;5117647;28;20245;-55
2021/01/15 10:41:31;;;;;;;;;;;1.90;99.90;;;;;;5117762;28;19911;-55
2021/01/15 10:43:57;;;;;;;;;;;1.90;99.90;;;;;;5118027;28;19964;-55
2021/01/15 10:46:42;;;;;;;;;;;1.90;99.90;;;;;;5117636;28;20430;-55
2021/01/15 10:49:09;;;;;;;;;;;2.10;99.90;;;;;;5117676;28;20286;-54
2021/01/15 10:51:34;;;;;;;;;;;2.30;99.90;;;;;;5116962;28;20211;-54
2021/01/15 10:54:00;;;;;;;;;;;2.40;99.90;;;;;;5117348;28;19903;-54
2021/01/15 10:56:33;;;;;;;;;;;2.30;99.90;;;;;;5117175;28;19911;-54
2021/01/15 10:58:58;;;;;;;;;;;2.30;99.90;;;;;;5117769;28;19910;-55
2021/01/15 11:01:32;;;;;;;;;;;2.50;99.90;;;;;;5099402;28;20221;-54
2021/01/15 11:03:57;;;;;;;;;;;2.50;99.90;;;;;;5117496;28;19904;-54
2021/01/15 11:06:23;;;;;;;;;;;2.60;99.90;;;;;;5117490;28;19914;-54
2021/01/15 11:08:48;;;;;;;;;;;2.60;99.90;;;;;;5117056;28;19908;-54
2021/01/15 11:11:14;;;;;;;;;;;2.60;99.90;;;;;;5117215;28;19939;-53
2021/01/15 11:13:39;;;;;;;;;;;2.70;99.90;;;;;;5117260;28;19904;-54
2021/01/15 11:16:12;;;;;;;;;;;2.90;99.90;;;;;;5117512;28;19998;-54
2021/01/15 11:18:38;;;;;;;;;;;2.80;99.90;;;;;;5116802;28;19904;-54
2021/01/15 11:21:03;;;;;;;;;;;2.70;99.90;;;;;;5110041;28;19923;-54
2021/01/15 11:23:29;;;;;;;;;;;2.60;99.90;;;;;;5107326;28;19918;-55
2021/01/15 11:25:54;;;;;;;;;;;2.60;99.90;;;;;;5101702;28;19908;-54
2021/01/15 11:28:20;;;;;;;;;;;2.70;99.90;;;;;;5096870;28;19956;-55
2021/01/15 11:30:45;;;;;;;;;;;2.80;99.90;;;;;;5100856;28;19915;-53
2021/01/15 11:33:11;;;;;;;;;;;2.80;99.90;;;;;;5117441;28;19937;-55
2021/01/15 11:35:36;;;;;;;;;;;2.90;99.90;;;;;;5117202;28;19908;-55
2021/01/15 11:38:02;;;;;;;;;;;2.90;99.90;;;;;;5117177;28;19904;-56
2021/01/15 11:40:27;;;;;;;;;;;3.00;99.90;;;;;;5116844;28;19908;-56
2021/01/15 11:42:54;;;;;;;;;;;3.00;99.90;;;;;;5099054;28;20218;-54
2021/01/15 11:45:19;;;;;;;;;;;3.10;99.90;;;;;;5116849;28;19920;-55
2021/01/15 11:47:49;;;;;;;;;;;3.30;99.90;;;;;;5117103;28;20428;-55
2021/01/15 11:50:15;;;;;;;;;;;3.50;99.90;;;;;;5116890;28;19907;-54
2021/01/15 11:52:40;;;;;;;;;;;3.50;99.90;;;;;;5117007;28;19907;-55
2021/01/15 11:55:06;;;;;;;;;;;3.60;99.90;;;;;;5116799;28;19918;-54
2021/01/15 11:57:31;;;;;;;;;;;3.70;99.90;;;;;;5117387;28;19912;-54
2021/01/15 11:59:57;;;;;;;;;;;3.90;99.90;;;;;;5116813;28;19908;-54
2021/01/15 12:02:22;;;;;;;;;;;3.70;99.90;;;;;;5117325;28;19908;-54
2021/01/15 12:04:48;;;;;;;;;;;3.50;99.90;;;;;;5117222;28;19965;-55
2021/01/15 12:07:13;;;;;;;;;;;3.40;99.90;;;;;;5117275;28;19949;-53
2021/01/15 12:09:39;;;;;;;;;;;3.30;99.90;;;;;;5116607;28;19911;-54
2021/01/15 12:12:05;;;;;;;;;;;3.40;99.90;;;;;;5117181;28;20002;-55
2021/01/15 12:14:30;;;;;;;;;;;3.30;99.90;;;;;;5116754;28;19914;-54
2021/01/15 12:16:59;;;;;;;;;;;3.30;99.90;;;;;;5117203;28;19930;-54
2021/01/15 12:19:24;;;;;;;;;;;3.40;99.90;;;;;;5117014;28;19908;-54
2021/01/15 12:21:50;;;;;;;;;;;3.60;99.90;;;;;;5098273;28;20347;-55
2021/01/15 12:24:16;;;;;;;;;;;3.50;99.90;;;;;;5085599;28;20335;-54
2021/01/15 12:26:41;;;;;;;;;;;3.70;99.90;;;;;;5119510;27;19980;-55
2021/01/15 12:29:07;;;;;;;;;;;3.80;99.90;;;;;;5118072;28;19914;-55
2021/01/15 12:31:33;;;;;;;;;;;3.80;99.90;;;;;;5107665;28;20238;-55
2021/01/15 12:33:59;;;;;;;;;;;3.80;99.90;;;;;;5109539;28;20593;-55
2021/01/15 12:36:24;;;;;;;;;;;4.00;99.90;;;;;;5101844;28;20005;-55
2021/01/15 12:38:50;;;;;;;;;;;4.00;99.90;;;;;;5105734;28;20292;-55
2021/01/15 12:41:18;;;;;;;;;;;4.10;99.90;;;;;;5098794;28;19939;-55
2021/01/15 12:43:43;;;;;;;;;;;4.20;99.90;;;;;;5110437;28;19918;-55
2021/01/15 12:46:09;;;;;;;;;;;4.10;99.90;;;;;;5117831;28;19920;-55
2021/01/15 12:48:35;;;;;;;;;;;4.00;99.90;;;;;;5117793;28;19930;-55
2021/01/15 12:51:00;;;;;;;;;;;3.90;99.90;;;;;;5117439;28;20294;-55
2021/01/15 12:53:26;;;;;;;;;;;3.80;99.90;;;;;;5117225;28;19912;-54
2021/01/15 12:55:51;;;;;;;;;;;3.70;99.90;;;;;;5118086;28;19907;-55
2021/01/15 12:58:17;;;;;;;;;;;3.60;99.90;;;;;;5116864;28;19904;-54
2021/01/15 13:00:42;;;;;;;;;;;3.60;99.90;;;;;;5117551;28;20368;-55
2021/01/15 13:03:08;;;;;;;;;;;3.70;99.90;;;;;;5117615;28;19908;-54
2021/01/15 13:05:36;;;;;;;;;;;3.70;99.90;;;;;;5116953;28;19908;-54
2021/01/15 13:08:01;;;;;;;;;;;3.60;99.90;;;;;;5117155;28;19994;-54
2021/01/15 13:10:27;;;;;;;;;;;3.80;99.90;;;;;;5116906;28;20010;-55
2021/01/15 13:12:52;;;;;;;;;;;3.90;99.90;;;;;;5117313;28;20219;-55
2021/01/15 13:15:18;;;;;;;;;;;3.90;99.90;;;;;;5117601;28;19943;-55
2021/01/15 13:17:56;;;;;;;;;;;3.90;99.90;;;;;;5117230;28;19912;-55
2021/01/15 13:20:23;;;;;;;;;;;3.90;99.90;;;;;;5117326;28;19907;-54
2021/01/15 13:23:01;;;;;;;;;;;3.90;99.90;;;;;;5117514;28;19918;-54
2021/01/15 13:25:27;;;;;;;;;;;3.80;99.90;;;;;;5104920;28;20315;-53
2021/01/15 13:27:53;;;;;;;;;;;3.90;99.90;;;;;;5096389;28;19954;-53
2021/01/15 13:30:19;;;;;;;;;;;4.20;99.90;;;;;;5096625;28;19916;-53
2021/01/15 13:32:45;;;;;;;;;;;4.20;99.90;;;;;;5095909;28;20156;-54
2021/01/15 13:35:10;;;;;;;;;;;4.10;99.90;;;;;;5095788;28;19915;-55
2021/01/15 13:37:37;;;;;;;;;;;4.00;99.90;;;;;;5096564;28;19999;-54
2021/01/15 13:40:12;;;;;;;;;;;4.00;99.90;;;;;;5096235;28;19908;-55
2021/01/15 13:42:38;;;;;;;;;;;4.00;99.90;;;;;;5096094;28;19904;-55
2021/01/15 13:45:04;;;;;;;;;;;4.00;99.90;;;;;;5096022;28;20303;-55
2021/01/15 13:47:30;;;;;;;;;;;4.00;99.90;;;;;;5095037;28;19908;-55
2021/01/15 13:49:56;;;;;;;;;;;4.20;99.90;;;;;;5104251;28;19923;-56
2021/01/15 13:52:21;;;;;;;;;;;4.30;99.90;;;;;;5114468;28;20318;-55
2021/01/15 13:54:47;;;;;;;;;;;4.40;99.90;;;;;;5129217;27;19911;-55
2021/01/15 13:57:12;;;;;;;;;;;4.50;99.90;;;;;;5136457;27;19912;-55
2021/01/15 13:59:38;;;;;;;;;;;4.30;99.90;;;;;;5136631;27;19907;-54
2021/01/15 14:02:03;;;;;;;;;;;4.30;99.90;;;;;;5120260;27;19914;-55
2021/01/15 14:04:29;;;;;;;;;;;4.50;99.90;;;;;;5135762;27;19911;-55
2021/01/15 14:06:54;;;;;;;;;;;4.50;99.90;;;;;;5112720;27;19951;-55
2021/01/15 14:09:20;;;;;;;;;;;4.50;99.90;;;;;;5115561;27;20006;-52
2021/01/15 14:11:45;;;;;;;;;;;4.60;99.90;;;;;;5108831;28;19924;-52
2021/01/15 14:14:11;;;;;;;;;;;4.60;99.90;;;;;;5111667;28;19911;-52
2021/01/15 14:16:36;;;;;;;;;;;4.50;99.90;;;;;;5106071;28;19943;-52
2021/01/15 14:19:02;;;;;;;;;;;4.60;99.90;;;;;;5117345;28;19908;-52
2021/01/15 14:21:29;;;;;;;;;;;4.60;99.90;;;;;;5113063;28;20001;-53
2021/01/15 14:23:55;;;;;;;;;;;4.50;99.90;;;;;;5104970;28;20584;-53
2021/01/15 14:26:20;;;;;;;;;;;4.60;99.90;;;;;;5110590;28;19995;-53
2021/01/15 14:28:46;;;;;;;;;;;4.70;99.90;;;;;;5103561;28;19915;-53
2021/01/15 14:31:11;;;;;;;;;;;4.80;99.90;;;;;;5104044;28;19912;-53
2021/01/15 14:33:37;;;;;;;;;;;4.80;99.90;;;;;;5106242;28;19919;-52